createdAt,value
2018-10-17T00:00:30.948Z,766.00
2018-10-17T00:01:31.290Z,766.00
2018-10-17T00:02:31.688Z,768.00
2018-10-17T00:03:32.199Z,766.00
2018-10-17T00:04:32.849Z,768.00
2018-10-17T00:05:33.139Z,766.00
2018-10-17T00:06:34.028Z,766.00
2018-10-17T00:07:34.537Z,768.00
2018-10-17T00:08:34.961Z,768.00
2018-10-17T00:09:35.306Z,768.00
2018-10-17T00:10:35.711Z,766.00
2018-10-17T00:11:36.218Z,768.00
2018-10-17T00:12:36.619Z,768.00
2018-10-17T00:13:37.113Z,768.00
2018-10-17T00:14:37.767Z,766.00
2018-10-17T00:15:38.055Z,766.00
2018-10-17T00:16:38.381Z,766.00
2018-10-17T00:17:38.754Z,766.00
2018-10-17T00:18:39.049Z,766.00
2018-10-17T00:19:39.320Z,766.00
2018-10-17T00:20:39.795Z,766.00
2018-10-17T00:21:40.156Z,766.00
2018-10-17T00:22:40.454Z,766.00
2018-10-17T00:23:40.736Z,768.00
2018-10-17T00:24:41.011Z,768.00
2018-10-17T00:25:41.296Z,769.00
2018-10-17T00:26:41.925Z,769.00
2018-10-17T00:27:42.180Z,769.00
2018-10-17T00:28:42.456Z,768.00
2018-10-17T00:29:42.808Z,768.00
2018-10-17T00:29:51.378Z,768.00
2018-10-17T00:30:52.758Z,768.00
2018-10-17T00:31:53.134Z,768.00
2018-10-17T00:32:53.514Z,768.00
2018-10-17T00:33:53.914Z,768.00
2018-10-17T00:34:54.263Z,768.00
2018-10-17T00:35:53.671Z,768.00
2018-10-17T00:36:55.232Z,768.00
2018-10-17T00:37:55.629Z,768.00
2018-10-17T00:38:56.124Z,768.00
2018-10-17T00:39:56.473Z,768.00
2018-10-17T00:40:57.024Z,769.00
2018-10-17T00:41:56.558Z,769.00
2018-10-17T00:42:57.991Z,770.00
2018-10-17T00:43:57.372Z,772.00
2018-10-17T00:44:58.912Z,772.00
2018-10-17T00:45:59.448Z,770.00
2018-10-17T00:47:00.263Z,772.00
2018-10-17T00:47:59.568Z,770.00
2018-10-17T00:49:00.994Z,770.00
2018-10-17T00:50:00.257Z,772.00
2018-10-17T00:51:01.564Z,770.00
2018-10-17T00:52:01.891Z,770.00
2018-10-17T00:53:02.195Z,769.00
2018-10-17T00:54:01.450Z,769.00
2018-10-17T00:55:02.892Z,769.00
2018-10-17T00:56:02.312Z,768.00
2018-10-17T00:57:03.615Z,769.00
2018-10-17T00:58:03.919Z,769.00
2018-10-17T00:59:04.418Z,769.00
2018-10-17T01:00:03.746Z,769.00
2018-10-17T01:01:05.436Z,769.00
2018-10-17T01:02:04.682Z,769.00
2018-10-17T01:03:06.498Z,769.00
2018-10-17T01:04:07.048Z,769.00
2018-10-17T01:05:07.432Z,769.00
2018-10-17T01:06:06.987Z,769.00
2018-10-17T01:07:08.421Z,769.00
2018-10-17T01:08:07.613Z,769.00
2018-10-17T01:09:09.074Z,769.00
2018-10-17T01:10:09.475Z,769.00
2018-10-17T01:11:09.899Z,769.00
2018-10-17T01:12:09.280Z,769.00
2018-10-17T01:13:11.272Z,769.00
2018-10-17T01:14:10.570Z,770.00
2018-10-17T01:15:12.062Z,769.00
2018-10-17T01:16:12.730Z,769.00
2018-10-17T01:17:13.042Z,769.00
2018-10-17T01:18:13.344Z,769.00
2018-10-17T01:19:13.842Z,769.00
2018-10-17T01:20:13.513Z,769.00
2018-10-17T01:21:14.884Z,769.00
2018-10-17T01:22:15.327Z,769.00
2018-10-17T01:23:15.817Z,769.00
2018-10-17T01:24:15.025Z,770.00
2018-10-17T01:25:16.424Z,770.00
2018-10-17T01:25:25.058Z,770.00
2018-10-17T01:26:26.247Z,769.00
2018-10-17T01:27:26.536Z,769.00
2018-10-17T01:28:26.849Z,769.00
2018-10-17T01:29:27.183Z,769.00
2018-10-17T01:30:27.514Z,769.00
2018-10-17T01:31:27.813Z,770.00
2018-10-17T01:32:28.085Z,770.00
2018-10-17T01:33:28.294Z,770.00
2018-10-17T01:34:28.545Z,770.00
2018-10-17T01:35:28.907Z,769.00
2018-10-17T01:36:29.133Z,769.00
2018-10-17T01:37:29.469Z,769.00
2018-10-17T01:38:28.670Z,769.00
2018-10-17T01:39:29.955Z,770.00
2018-10-17T01:40:30.270Z,769.00
2018-10-17T01:41:30.525Z,769.00
2018-10-17T01:42:30.909Z,770.00
2018-10-17T01:43:31.456Z,770.00
2018-10-17T01:44:32.175Z,770.00
2018-10-17T01:45:32.539Z,769.00
2018-10-17T01:46:33.142Z,769.00
2018-10-17T01:47:33.507Z,769.00
2018-10-17T01:48:33.830Z,769.00
2018-10-17T01:49:34.118Z,769.00
2018-10-17T01:50:34.380Z,769.00
2018-10-17T01:51:34.755Z,769.00
2018-10-17T01:52:35.148Z,769.00
2018-10-17T01:53:35.547Z,769.00
2018-10-17T01:54:35.934Z,769.00
2018-10-17T01:55:36.249Z,769.00
2018-10-17T01:56:37.278Z,769.00
2018-10-17T01:57:37.635Z,768.00
2018-10-17T01:58:37.167Z,769.00
2018-10-17T01:59:37.573Z,769.00
2018-10-17T02:00:37.905Z,770.00
2018-10-17T02:01:39.315Z,769.00
2018-10-17T02:02:39.674Z,770.00
2018-10-17T02:03:40.093Z,770.00
2018-10-17T02:04:40.489Z,769.00
2018-10-17T02:05:40.778Z,769.00
2018-10-17T02:06:41.240Z,770.00
2018-10-17T02:07:41.785Z,769.00
2018-10-17T02:08:42.139Z,769.00
2018-10-17T02:09:42.410Z,770.00
2018-10-17T02:10:42.853Z,769.00
2018-10-17T02:11:43.366Z,769.00
2018-10-17T02:11:53.320Z,769.00
2018-10-17T02:12:54.807Z,769.00
2018-10-17T02:13:54.093Z,769.00
2018-10-17T02:14:55.409Z,769.00
2018-10-17T02:15:55.806Z,768.00
2018-10-17T02:16:56.243Z,770.00
2018-10-17T02:17:55.984Z,770.00
2018-10-17T02:18:57.416Z,768.00
2018-10-17T02:19:57.304Z,770.00
2018-10-17T02:20:59.033Z,772.00
2018-10-17T02:21:59.572Z,770.00
2018-10-17T02:22:59.931Z,770.00
2018-10-17T02:23:59.388Z,772.00
2018-10-17T02:25:00.780Z,772.00
2018-10-17T02:26:01.238Z,773.00
2018-10-17T02:27:01.585Z,773.00
2018-10-17T02:28:02.061Z,772.00
2018-10-17T02:29:02.516Z,772.00
2018-10-17T02:30:01.888Z,772.00
2018-10-17T02:31:02.354Z,772.00
2018-10-17T02:32:02.795Z,771.00
2018-10-17T02:33:03.075Z,770.00
2018-10-17T02:34:04.367Z,773.00
2018-10-17T02:35:04.786Z,773.00
2018-10-17T02:36:04.248Z,775.00
2018-10-17T02:37:06.116Z,775.00
2018-10-17T02:38:05.509Z,775.00
2018-10-17T02:39:06.904Z,775.00
2018-10-17T02:40:07.208Z,775.00
2018-10-17T02:41:07.633Z,774.00
2018-10-17T02:42:06.901Z,775.00
2018-10-17T02:43:08.280Z,775.00
2018-10-17T02:44:07.563Z,775.00
2018-10-17T02:45:08.889Z,774.00
2018-10-17T02:46:09.179Z,774.00
2018-10-17T02:47:09.621Z,773.00
2018-10-17T02:48:09.251Z,774.00
2018-10-17T02:49:10.593Z,774.00
2018-10-17T02:50:09.982Z,773.00
2018-10-17T02:51:11.354Z,773.00
2018-10-17T02:52:11.727Z,773.00
2018-10-17T02:53:12.121Z,773.00
2018-10-17T02:54:11.652Z,773.00
2018-10-17T02:55:13.110Z,773.00
2018-10-17T02:56:12.448Z,773.00
2018-10-17T02:57:13.949Z,772.00
2018-10-17T02:58:14.367Z,772.00
2018-10-17T02:59:14.864Z,772.00
2018-10-17T03:00:14.074Z,772.00
2018-10-17T03:01:15.530Z,772.00
2018-10-17T03:02:14.849Z,773.00
2018-10-17T03:03:15.837Z,773.00
2018-10-17T03:04:16.138Z,773.00
2018-10-17T03:05:16.632Z,772.00
2018-10-17T03:06:15.819Z,773.00
2018-10-17T03:07:17.252Z,773.00
2018-10-17T03:08:16.573Z,773.00
2018-10-17T03:09:18.008Z,773.00
2018-10-17T03:10:18.513Z,773.00
2018-10-17T03:11:19.088Z,772.00
2018-10-17T03:12:18.493Z,772.00
2018-10-17T03:12:27.189Z,772.00
2018-10-17T03:13:27.621Z,772.00
2018-10-17T03:14:27.880Z,773.00
2018-10-17T03:15:28.276Z,773.00
2018-10-17T03:16:28.561Z,773.00
2018-10-17T03:17:28.919Z,773.00
2018-10-17T03:18:29.291Z,772.00
2018-10-17T03:19:29.577Z,773.00
2018-10-17T03:20:30.055Z,773.00
2018-10-17T03:21:30.379Z,773.00
2018-10-17T03:22:30.713Z,773.00
2018-10-17T03:23:31.016Z,773.00
2018-10-17T03:24:31.413Z,773.00
2018-10-17T03:25:31.766Z,773.00
2018-10-17T03:26:32.043Z,773.00
2018-10-17T03:27:32.462Z,726.00
2018-10-17T03:28:33.237Z,772.00
2018-10-17T03:29:33.587Z,772.00
2018-10-17T03:30:34.009Z,773.00
2018-10-17T03:31:34.435Z,773.00
2018-10-17T03:32:33.542Z,773.00
2018-10-17T03:33:34.816Z,773.00
2018-10-17T03:34:35.075Z,773.00
2018-10-17T03:35:35.482Z,772.00
2018-10-17T03:36:35.840Z,772.00
2018-10-17T03:37:36.502Z,773.00
2018-10-17T03:38:37.092Z,773.00
2018-10-17T03:39:37.356Z,773.00
2018-10-17T03:40:37.774Z,775.00
2018-10-17T03:41:38.140Z,774.00
2018-10-17T03:42:38.466Z,775.00
2018-10-17T03:43:38.942Z,773.00
2018-10-17T03:44:39.299Z,773.00
2018-10-17T03:45:39.753Z,773.00
2018-10-17T03:46:40.113Z,773.00
2018-10-17T03:47:40.634Z,773.00
2018-10-17T03:48:40.924Z,773.00
2018-10-17T03:49:41.440Z,773.00
2018-10-17T03:50:40.732Z,773.00
2018-10-17T03:51:42.234Z,774.00
2018-10-17T03:52:42.752Z,775.00
2018-10-17T03:53:43.240Z,775.00
2018-10-17T03:54:43.637Z,774.00
2018-10-17T03:55:43.957Z,775.00
2018-10-17T03:56:44.372Z,774.00
2018-10-17T03:56:52.459Z,774.00
2018-10-17T03:57:54.001Z,774.00
2018-10-17T03:58:54.370Z,773.00
2018-10-17T03:59:54.824Z,774.00
2018-10-17T04:00:55.206Z,774.00
2018-10-17T04:01:54.554Z,774.00
2018-10-17T04:02:55.963Z,774.00
2018-10-17T04:03:55.273Z,774.00
2018-10-17T04:04:56.728Z,774.00
2018-10-17T04:05:55.973Z,774.00
2018-10-17T04:06:57.360Z,774.00
2018-10-17T04:07:56.780Z,773.00
2018-10-17T04:08:57.792Z,773.00
2018-10-17T04:09:58.099Z,774.00
2018-10-17T04:10:58.519Z,773.00
2018-10-17T04:11:57.832Z,774.00
2018-10-17T04:12:59.509Z,774.00
2018-10-17T04:13:58.865Z,774.00
2018-10-17T04:15:00.224Z,774.00
2018-10-17T04:16:00.560Z,773.00
2018-10-17T04:17:00.899Z,773.00
2018-10-17T04:18:00.770Z,772.00
2018-10-17T04:19:02.204Z,774.00
2018-10-17T04:20:01.416Z,774.00
2018-10-17T04:21:02.903Z,774.00
2018-10-17T04:22:03.185Z,774.00
2018-10-17T04:23:03.646Z,774.00
2018-10-17T04:24:02.828Z,774.00
2018-10-17T04:25:04.488Z,773.00
2018-10-17T04:26:03.928Z,773.00
2018-10-17T04:27:05.333Z,773.00
2018-10-17T04:28:05.546Z,773.00
2018-10-17T04:29:05.926Z,773.00
2018-10-17T04:30:05.413Z,774.00
2018-10-17T04:31:06.786Z,773.00
2018-10-17T04:32:06.118Z,773.00
2018-10-17T04:33:07.386Z,773.00
2018-10-17T04:34:07.946Z,773.00
2018-10-17T04:35:08.568Z,773.00
2018-10-17T04:36:07.805Z,774.00
2018-10-17T04:37:08.387Z,775.00
2018-10-17T04:38:08.689Z,774.00
2018-10-17T04:39:10.150Z,773.00
2018-10-17T04:40:10.587Z,774.00
2018-10-17T04:41:11.048Z,774.00
2018-10-17T04:42:10.324Z,775.00
2018-10-17T04:43:11.855Z,774.00
2018-10-17T04:44:11.199Z,774.00
2018-10-17T04:45:12.881Z,773.00
2018-10-17T04:46:13.272Z,774.00
2018-10-17T04:47:13.790Z,774.00
2018-10-17T04:48:13.091Z,774.00
2018-10-17T04:49:14.533Z,775.00
2018-10-17T04:50:13.751Z,776.00
2018-10-17T04:51:15.024Z,776.00
2018-10-17T04:52:15.413Z,775.00
2018-10-17T04:53:15.740Z,774.00
2018-10-17T04:54:15.125Z,774.00
2018-10-17T04:55:16.534Z,774.00
2018-10-17T04:56:15.850Z,774.00
2018-10-17T04:57:17.662Z,775.00
2018-10-17T04:57:26.391Z,774.00
2018-10-17T04:58:26.749Z,774.00
2018-10-17T04:59:27.553Z,774.00
2018-10-17T05:00:28.229Z,774.00
2018-10-17T05:01:28.486Z,774.00
2018-10-17T05:02:28.826Z,774.00
2018-10-17T05:03:29.559Z,773.00
2018-10-17T05:04:29.142Z,774.00
2018-10-17T05:05:29.462Z,773.00
2018-10-17T05:06:31.152Z,774.00
2018-10-17T05:07:31.672Z,774.00
2018-10-17T05:08:32.655Z,774.00
2018-10-17T05:09:33.082Z,774.00
2018-10-17T05:10:33.401Z,774.00
2018-10-17T05:11:34.020Z,774.00
2018-10-17T05:12:34.302Z,774.00
2018-10-17T05:13:34.640Z,774.00
2018-10-17T05:14:35.007Z,775.00
2018-10-17T05:15:35.416Z,775.00
2018-10-17T05:16:35.900Z,774.00
2018-10-17T05:17:36.246Z,774.00
2018-10-17T05:18:36.923Z,774.00
2018-10-17T05:19:37.311Z,774.00
2018-10-17T05:20:38.206Z,775.00
2018-10-17T05:21:38.616Z,776.00
2018-10-17T05:22:39.179Z,778.00
2018-10-17T05:23:39.520Z,778.00
2018-10-17T05:24:39.775Z,778.00
2018-10-17T05:25:40.139Z,780.00
2018-10-17T05:26:40.635Z,780.00
2018-10-17T05:27:40.926Z,778.00
2018-10-17T05:28:41.631Z,777.00
2018-10-17T05:29:42.062Z,776.00
2018-10-17T05:30:41.287Z,776.00
2018-10-17T05:31:42.681Z,776.00
2018-10-17T05:32:43.182Z,777.00
2018-10-17T05:33:44.098Z,778.00
2018-10-17T05:34:44.579Z,777.00
2018-10-17T05:35:44.962Z,776.00
2018-10-17T05:36:45.554Z,775.00
2018-10-17T05:37:46.069Z,776.00
2018-10-17T05:38:45.325Z,776.00
2018-10-17T05:39:46.719Z,776.00
2018-10-17T05:40:47.229Z,776.00
2018-10-17T05:41:46.500Z,776.00
2018-10-17T05:42:47.820Z,776.00
2018-10-17T05:43:48.239Z,775.00
2018-10-17T05:44:48.646Z,775.00
2018-10-17T05:44:57.699Z,774.00
2018-10-17T05:45:58.229Z,775.00
2018-10-17T05:46:58.915Z,774.00
2018-10-17T05:47:58.470Z,774.00
2018-10-17T05:48:59.826Z,774.00
2018-10-17T05:49:59.220Z,774.00
2018-10-17T05:51:00.882Z,774.00
2018-10-17T05:52:01.676Z,774.00
2018-10-17T05:53:02.466Z,775.00
2018-10-17T05:54:01.875Z,775.00
2018-10-17T05:55:03.303Z,775.00
2018-10-17T05:56:02.527Z,776.00
2018-10-17T05:57:03.989Z,776.00
2018-10-17T05:58:04.796Z,775.00
2018-10-17T05:59:05.251Z,775.00
2018-10-17T06:00:04.543Z,775.00
2018-10-17T06:01:06.098Z,775.00
2018-10-17T06:02:05.443Z,775.00
2018-10-17T06:03:05.769Z,775.00
2018-10-17T06:04:07.081Z,774.00
2018-10-17T06:05:07.936Z,775.00
2018-10-17T06:06:07.227Z,775.00
2018-10-17T06:07:08.844Z,774.00
2018-10-17T06:08:08.153Z,774.00
2018-10-17T06:09:09.475Z,774.00
2018-10-17T06:10:10.749Z,774.00
2018-10-17T06:11:11.116Z,774.00
2018-10-17T06:12:09.668Z,774.00
2018-10-17T06:13:10.029Z,774.00
2018-10-17T06:14:10.115Z,775.00
2018-10-17T06:15:11.715Z,775.00
2018-10-17T06:16:12.129Z,776.00
2018-10-17T06:17:12.342Z,775.00
2018-10-17T06:18:11.681Z,774.00
2018-10-17T06:19:13.201Z,775.00
2018-10-17T06:20:12.449Z,775.00
2018-10-17T06:21:14.170Z,775.00
2018-10-17T06:22:14.712Z,775.00
2018-10-17T06:23:15.229Z,776.00
2018-10-17T06:24:14.561Z,775.00
2018-10-17T06:25:16.988Z,776.00
2018-10-17T06:26:15.265Z,775.00
2018-10-17T06:27:17.439Z,775.00
2018-10-17T06:28:17.067Z,774.00
2018-10-17T06:29:16.676Z,774.00
2018-10-17T06:30:17.019Z,774.00
2018-10-17T06:31:18.356Z,774.00
2018-10-17T06:32:17.869Z,774.00
2018-10-17T06:33:19.201Z,774.00
2018-10-17T06:34:19.671Z,775.00
2018-10-17T06:35:19.077Z,775.00
2018-10-17T06:36:19.563Z,775.00
2018-10-17T06:37:21.118Z,774.00
2018-10-17T06:38:21.637Z,774.00
2018-10-17T06:39:21.927Z,774.00
2018-10-17T06:40:22.350Z,775.00
2018-10-17T06:41:22.728Z,774.00
2018-10-17T06:42:23.057Z,774.00
2018-10-17T06:43:23.386Z,773.00
2018-10-17T06:44:22.715Z,774.00
2018-10-17T06:44:31.267Z,773.00
2018-10-17T06:45:32.745Z,773.00
2018-10-17T06:46:33.299Z,773.00
2018-10-17T06:47:33.591Z,773.00
2018-10-17T06:48:33.928Z,773.00
2018-10-17T06:49:34.209Z,773.00
2018-10-17T06:50:34.555Z,773.00
2018-10-17T06:51:35.016Z,773.00
2018-10-17T06:52:35.486Z,773.00
2018-10-17T06:53:35.099Z,773.00
2018-10-17T06:54:35.365Z,773.00
2018-10-17T06:55:35.799Z,772.00
2018-10-17T06:56:37.265Z,772.00
2018-10-17T06:57:37.716Z,772.00
2018-10-17T06:58:37.148Z,772.00
2018-10-17T06:59:38.511Z,770.00
2018-10-17T07:00:38.831Z,772.00
2018-10-17T07:01:39.564Z,770.00
2018-10-17T07:02:38.853Z,771.00
2018-10-17T07:03:40.411Z,771.00
2018-10-17T07:04:40.878Z,770.00
2018-10-17T07:05:41.209Z,772.00
2018-10-17T07:06:41.549Z,772.00
2018-10-17T07:07:41.863Z,770.00
2018-10-17T07:08:42.380Z,770.00
2018-10-17T07:09:42.657Z,770.00
2018-10-17T07:10:43.409Z,769.00
2018-10-17T07:11:43.966Z,770.00
2018-10-17T07:12:44.280Z,770.00
2018-10-17T07:13:45.685Z,770.00
2018-10-17T07:14:44.983Z,770.00
2018-10-17T07:15:45.246Z,769.00
2018-10-17T07:16:44.797Z,770.00
2018-10-17T07:17:46.356Z,769.00
2018-10-17T07:18:46.693Z,770.00
2018-10-17T07:19:47.039Z,770.00
2018-10-17T07:20:47.333Z,770.00
2018-10-17T07:21:48.028Z,769.00
2018-10-17T07:22:48.352Z,769.00
2018-10-17T07:23:48.867Z,769.00
2018-10-17T07:24:49.230Z,769.00
2018-10-17T07:25:49.861Z,768.00
2018-10-17T07:26:50.320Z,769.00
2018-10-17T07:27:50.668Z,769.00
2018-10-17T07:28:51.099Z,766.00
2018-10-17T07:29:50.739Z,768.00
2018-10-17T07:30:51.337Z,769.00
2018-10-17T07:31:52.596Z,769.00
2018-10-17T07:32:53.013Z,768.00
2018-10-17T07:33:54.319Z,768.00
2018-10-17T07:34:53.809Z,768.00
2018-10-17T07:35:55.404Z,768.00
2018-10-17T07:36:55.058Z,768.00
2018-10-17T07:37:03.696Z,768.00
2018-10-17T07:38:04.372Z,768.00
2018-10-17T07:39:04.945Z,768.00
2018-10-17T07:40:05.362Z,768.00
2018-10-17T07:41:05.850Z,768.00
2018-10-17T07:42:06.162Z,768.00
2018-10-17T07:43:05.590Z,768.00
2018-10-17T07:44:06.913Z,768.00
2018-10-17T07:45:07.285Z,768.00
2018-10-17T07:46:07.835Z,768.00
2018-10-17T07:47:08.486Z,768.00
2018-10-17T07:48:08.946Z,768.00
2018-10-17T07:49:08.159Z,766.00
2018-10-17T07:50:09.439Z,766.00
2018-10-17T07:51:09.837Z,769.00
2018-10-17T07:52:10.291Z,769.00
2018-10-17T07:53:10.629Z,769.00
2018-10-17T07:54:10.277Z,768.00
2018-10-17T07:55:10.422Z,769.00
2018-10-17T07:56:12.042Z,768.00
2018-10-17T07:57:12.422Z,768.00
2018-10-17T07:58:12.895Z,768.00
2018-10-17T07:59:13.187Z,768.00
2018-10-17T08:00:13.547Z,768.00
2018-10-17T08:01:12.949Z,768.00
2018-10-17T08:02:14.295Z,769.00
2018-10-17T08:03:14.831Z,768.00
2018-10-17T08:04:15.521Z,769.00
2018-10-17T08:05:16.074Z,768.00
2018-10-17T08:06:16.550Z,769.00
2018-10-17T08:07:15.794Z,769.00
2018-10-17T08:08:17.086Z,768.00
2018-10-17T08:09:17.395Z,768.00
2018-10-17T08:10:17.672Z,768.00
2018-10-17T08:11:17.973Z,766.00
2018-10-17T08:12:18.369Z,766.00
2018-10-17T08:13:17.648Z,766.00
2018-10-17T08:14:19.157Z,766.00
2018-10-17T08:15:18.398Z,766.00
2018-10-17T08:16:19.852Z,765.00
2018-10-17T08:17:20.282Z,765.00
2018-10-17T08:18:20.601Z,765.00
2018-10-17T08:19:21.195Z,765.00
2018-10-17T08:20:20.322Z,765.00
2018-10-17T08:21:21.937Z,765.00
2018-10-17T08:22:21.143Z,766.00
2018-10-17T08:23:22.961Z,766.00
2018-10-17T08:24:23.446Z,765.00
2018-10-17T08:25:23.727Z,766.00
2018-10-17T08:26:24.157Z,766.00
2018-10-17T08:27:24.084Z,766.00
2018-10-17T08:28:24.546Z,766.00
2018-10-17T08:29:25.896Z,766.00
2018-10-17T08:30:26.294Z,766.00
2018-10-17T08:30:35.109Z,766.00
2018-10-17T08:31:35.533Z,766.00
2018-10-17T08:32:36.034Z,766.00
2018-10-17T08:33:36.513Z,766.00
2018-10-17T08:34:36.921Z,766.00
2018-10-17T08:35:37.369Z,765.00
2018-10-17T08:36:36.653Z,766.00
2018-10-17T08:37:37.376Z,765.00
2018-10-17T08:38:37.137Z,765.00
2018-10-17T08:39:38.494Z,765.00
2018-10-17T08:40:39.031Z,765.00
2018-10-17T08:41:39.556Z,765.00
2018-10-17T08:42:39.997Z,765.00
2018-10-17T08:43:40.432Z,765.00
2018-10-17T08:44:41.239Z,765.00
2018-10-17T08:45:41.535Z,765.00
2018-10-17T08:46:41.794Z,765.00
2018-10-17T08:47:42.071Z,765.00
2018-10-17T08:48:42.441Z,765.00
2018-10-17T08:49:43.791Z,765.00
2018-10-17T08:50:43.289Z,765.00
2018-10-17T08:51:42.765Z,765.00
2018-10-17T08:52:44.330Z,765.00
2018-10-17T08:53:45.300Z,765.00
2018-10-17T08:54:45.651Z,765.00
2018-10-17T08:55:46.133Z,766.00
2018-10-17T08:56:46.530Z,765.00
2018-10-17T08:57:46.860Z,764.00
2018-10-17T08:58:46.213Z,762.00
2018-10-17T08:59:47.903Z,760.00
2018-10-17T09:00:48.119Z,760.00
2018-10-17T09:01:48.377Z,758.00
2018-10-17T09:02:48.660Z,758.00
2018-10-17T09:03:48.991Z,757.00
2018-10-17T09:04:49.463Z,758.00
2018-10-17T09:05:49.748Z,757.00
2018-10-17T09:06:50.102Z,758.00
2018-10-17T09:07:50.748Z,757.00
2018-10-17T09:08:49.933Z,757.00
2018-10-17T09:09:51.404Z,756.00
2018-10-17T09:10:51.434Z,754.00
2018-10-17T09:11:51.947Z,753.00
2018-10-17T09:12:52.353Z,750.00
2018-10-17T09:13:52.763Z,749.00
2018-10-17T09:14:52.052Z,749.00
2018-10-17T09:15:53.321Z,749.00
2018-10-17T09:16:52.588Z,749.00
2018-10-17T09:17:54.028Z,748.00
2018-10-17T09:18:54.397Z,748.00
2018-10-17T09:19:54.928Z,748.00
2018-10-17T09:20:54.570Z,748.00
2018-10-17T09:21:54.862Z,748.00
2018-10-17T09:22:55.033Z,748.00
2018-10-17T09:23:56.530Z,748.00
2018-10-17T09:24:05.106Z,747.00
2018-10-17T09:25:05.924Z,746.00
2018-10-17T09:26:05.226Z,745.00
2018-10-17T09:27:06.514Z,744.00
2018-10-17T09:28:06.920Z,744.00
2018-10-17T09:29:06.132Z,741.00
2018-10-17T09:30:07.478Z,742.00
2018-10-17T09:31:06.707Z,741.00
2018-10-17T09:32:08.069Z,740.00
2018-10-17T09:33:08.518Z,740.00
2018-10-17T09:34:09.068Z,741.00
2018-10-17T09:35:10.396Z,741.00
2018-10-17T09:36:08.993Z,742.00
2018-10-17T09:37:09.262Z,744.00
2018-10-17T09:38:10.745Z,744.00
2018-10-17T09:39:11.147Z,744.00
2018-10-17T09:40:11.553Z,744.00
2018-10-17T09:41:10.717Z,744.00
2018-10-17T09:42:11.814Z,745.00
2018-10-17T09:43:11.234Z,748.00
2018-10-17T09:44:12.532Z,749.00
2018-10-17T09:45:12.889Z,749.00
2018-10-17T09:46:13.282Z,748.00
2018-10-17T09:47:12.591Z,747.00
2018-10-17T09:48:14.177Z,748.00
2018-10-17T09:49:13.323Z,749.00
2018-10-17T09:50:14.595Z,749.00
2018-10-17T09:51:15.138Z,749.00
2018-10-17T09:52:15.096Z,750.00
2018-10-17T09:53:15.322Z,750.00
2018-10-17T09:54:16.766Z,753.00
2018-10-17T09:55:15.889Z,756.00
2018-10-17T09:56:17.349Z,754.00
2018-10-17T09:57:17.665Z,750.00
2018-10-17T09:58:18.110Z,751.00
2018-10-17T09:59:17.463Z,750.00
2018-10-17T10:00:17.785Z,750.00
2018-10-17T10:01:18.162Z,749.00
2018-10-17T10:02:19.532Z,749.00
2018-10-17T10:03:19.196Z,749.00
2018-10-17T10:04:19.477Z,749.00
2018-10-17T10:05:20.307Z,748.00
2018-10-17T10:06:21.994Z,748.00
2018-10-17T10:07:21.641Z,750.00
2018-10-17T10:08:23.172Z,750.00
2018-10-17T10:09:22.833Z,753.00
2018-10-17T10:10:23.452Z,756.00
2018-10-17T10:11:24.092Z,754.00
2018-10-17T10:12:25.518Z,753.00
2018-10-17T10:13:26.210Z,751.00
2018-10-17T10:14:26.348Z,750.00
2018-10-17T10:15:25.725Z,750.00
2018-10-17T10:16:27.058Z,750.00
2018-10-17T10:17:26.356Z,749.00
2018-10-17T10:18:26.912Z,749.00
2018-10-17T10:19:28.669Z,749.00
2018-10-17T10:20:27.922Z,748.00
2018-10-17T10:21:27.817Z,748.00
2018-10-17T10:22:29.600Z,748.00
2018-10-17T10:23:31.380Z,748.00
2018-10-17T10:24:30.125Z,748.00
2018-10-17T10:25:30.670Z,708.00
2018-10-17T10:26:31.514Z,748.00
2018-10-17T10:27:33.329Z,748.00
2018-10-17T10:28:33.613Z,747.00
2018-10-17T10:29:32.981Z,748.00
2018-10-17T10:30:33.549Z,747.00
2018-10-17T10:31:35.092Z,747.00
2018-10-17T10:32:35.711Z,747.00
2018-10-17T10:33:36.343Z,747.00
2018-10-17T10:33:44.654Z,746.00
2018-10-17T10:34:45.020Z,746.00
2018-10-17T10:35:45.481Z,746.00
2018-10-17T10:36:47.120Z,746.00
2018-10-17T10:37:47.972Z,746.00
2018-10-17T10:38:47.739Z,746.00
2018-10-17T10:39:49.367Z,747.00
2018-10-17T10:40:50.054Z,747.00
2018-10-17T10:41:49.917Z,746.00
2018-10-17T10:42:50.519Z,747.00
2018-10-17T10:43:51.395Z,747.00
2018-10-17T10:44:52.776Z,747.00
2018-10-17T10:45:52.223Z,747.00
2018-10-17T10:46:53.774Z,746.00
2018-10-17T10:47:54.253Z,747.00
2018-10-17T10:48:53.541Z,747.00
2018-10-17T10:49:53.976Z,747.00
2018-10-17T10:50:54.244Z,747.00
2018-10-17T10:51:54.475Z,747.00
2018-10-17T10:52:55.923Z,748.00
2018-10-17T10:53:55.441Z,748.00
2018-10-17T10:54:56.896Z,748.00
2018-10-17T10:55:57.251Z,747.00
2018-10-17T10:56:56.283Z,748.00
2018-10-17T10:57:56.637Z,748.00
2018-10-17T10:58:57.076Z,748.00
2018-10-17T10:59:57.273Z,748.00
2018-10-17T11:00:57.505Z,748.00
2018-10-17T11:01:59.342Z,748.00
2018-10-17T11:02:58.847Z,747.00
2018-10-17T11:03:59.174Z,748.00
2018-10-17T11:05:00.567Z,749.00
2018-10-17T11:05:59.976Z,749.00
2018-10-17T11:07:01.321Z,750.00
2018-10-17T11:08:01.660Z,753.00
2018-10-17T11:09:00.924Z,753.00
2018-10-17T11:10:02.169Z,753.00
2018-10-17T11:11:02.745Z,753.00
2018-10-17T11:12:01.741Z,754.00
2018-10-17T11:13:03.583Z,756.00
2018-10-17T11:14:04.108Z,754.00
2018-10-17T11:15:03.554Z,753.00
2018-10-17T11:16:04.233Z,751.00
2018-10-17T11:17:05.753Z,754.00
2018-10-17T11:18:05.028Z,757.00
2018-10-17T11:19:06.082Z,756.00
2018-10-17T11:20:06.591Z,756.00
2018-10-17T11:21:07.402Z,754.00
2018-10-17T11:22:07.013Z,753.00
2018-10-17T11:23:07.636Z,751.00
2018-10-17T11:24:07.856Z,750.00
2018-10-17T11:25:09.393Z,749.00
2018-10-17T11:26:10.057Z,749.00
2018-10-17T11:27:10.657Z,747.00
2018-10-17T11:28:10.070Z,749.00
2018-10-17T11:29:12.039Z,749.00
2018-10-17T11:30:11.249Z,748.00
2018-10-17T11:31:13.041Z,749.00
2018-10-17T11:32:13.383Z,749.00
2018-10-17T11:33:14.002Z,749.00
2018-10-17T11:34:13.132Z,749.00
2018-10-17T11:35:14.958Z,749.00
2018-10-17T11:36:14.224Z,748.00
2018-10-17T11:37:15.856Z,747.00
2018-10-17T11:38:15.161Z,747.00
2018-10-17T11:39:16.609Z,748.00
2018-10-17T11:39:26.602Z,748.00
2018-10-17T11:40:27.372Z,748.00
2018-10-17T11:41:26.948Z,749.00
2018-10-17T11:42:27.155Z,748.00
2018-10-17T11:43:28.857Z,749.00
2018-10-17T11:44:29.534Z,749.00
2018-10-17T11:45:29.937Z,749.00
2018-10-17T11:46:30.657Z,749.00
2018-10-17T11:47:30.062Z,749.00
2018-10-17T11:48:30.465Z,749.00
2018-10-17T11:49:30.645Z,748.00
2018-10-17T11:50:32.264Z,750.00
2018-10-17T11:51:31.757Z,751.00
2018-10-17T11:52:33.423Z,753.00
2018-10-17T11:53:33.756Z,752.00
2018-10-17T11:54:34.041Z,749.00
2018-10-17T11:55:34.269Z,749.00
2018-10-17T11:56:34.670Z,749.00
2018-10-17T11:57:35.000Z,750.00
2018-10-17T11:58:35.352Z,749.00
2018-10-17T11:59:35.687Z,753.00
2018-10-17T12:00:34.904Z,750.00
2018-10-17T12:01:36.259Z,750.00
2018-10-17T12:02:36.572Z,750.00
2018-10-17T12:03:37.324Z,750.00
2018-10-17T12:04:36.929Z,749.00
2018-10-17T12:05:37.795Z,748.00
2018-10-17T12:06:37.896Z,748.00
2018-10-17T12:07:38.245Z,748.00
2018-10-17T12:08:39.687Z,748.00
2018-10-17T12:09:39.694Z,748.00
2018-10-17T12:10:39.997Z,748.00
2018-10-17T12:11:40.400Z,748.00
2018-10-17T12:12:40.914Z,747.00
2018-10-17T12:13:41.212Z,746.00
2018-10-17T12:14:41.537Z,746.00
2018-10-17T12:15:41.822Z,746.00
2018-10-17T12:16:42.218Z,746.00
2018-10-17T12:17:42.806Z,747.00
2018-10-17T12:18:43.207Z,747.00
2018-10-17T12:19:43.672Z,746.00
2018-10-17T12:20:44.162Z,748.00
2018-10-17T12:21:43.439Z,748.00
2018-10-17T12:22:44.806Z,748.00